Time;durP1;ratioP1;P1;durP2;ratioP2;P2;SDS_P1;SDS_P2;PMS_P1;PMS_P2;Temp;Humidity;BMP_temperature;BMP_pressure;BME280_temperature;BME280_humidity;BME280_pressure;Samples;Min_cycle;Max_cycle;Signal;HPM_P1;HPM_P2
2020/12/23 00:00:09;;;;;;;23.08;9.80;;;;;;;;;;4919795;29;20114;-79
2020/12/23 00:02:34;;;;;;;21.50;8.98;;;;;;;;;;4920526;29;20092;-77
2020/12/23 00:05:00;;;;;;;22.02;9.23;;;;;;;;;;4920345;29;20027;-77
2020/12/23 00:07:25;;;;;;;15.48;9.43;;;;;;;;;;4920096;29;20052;-77
2020/12/23 00:09:50;;;;;;;20.05;9.02;;;;;;;;;;4920262;29;20507;-77
2020/12/23 00:12:15;;;;;;;19.20;9.55;;;;;;;;;;4937337;29;20110;-78
2020/12/23 00:14:41;;;;;;;21.15;8.95;;;;;;;;;;4920128;29;20031;-78
2020/12/23 00:17:06;;;;;;;19.98;8.98;;;;;;;;;;4918982;29;20054;-77
2020/12/23 00:19:33;;;;;;;15.68;9.32;;;;;;;;;;4920059;29;20036;-77
2020/12/23 00:21:58;;;;;;;19.75;9.07;;;;;;;;;;4919623;29;20041;-78
2020/12/23 00:24:23;;;;;;;20.27;9.82;;;;;;;;;;4919909;29;20016;-77
2020/12/23 00:26:48;;;;;;;19.73;8.85;;;;;;;;;;4919590;29;20443;-78
2020/12/23 00:29:14;;;;;;;21.02;8.98;;;;;;;;;;4935900;29;20494;-77
2020/12/23 00:31:39;;;;;;;15.52;8.20;;;;;;;;;;4913493;29;20030;-77
2020/12/23 00:34:04;;;;;;;14.70;6.88;;;;;;;;;;4928463;29;20103;-77
2020/12/23 00:36:30;;;;;;;22.80;7.78;;;;;;;;;;4919527;29;20028;-77
2020/12/23 00:38:55;;;;;;;18.77;7.28;;;;;;;;;;4919644;29;20011;-78
2020/12/23 00:41:20;;;;;;;16.90;7.57;;;;;;;;;;4918967;29;20039;-78
2020/12/23 00:43:45;;;;;;;19.45;7.50;;;;;;;;;;4919685;29;20024;-78
2020/12/23 00:46:11;;;;;;;16.48;8.30;;;;;;;;;;4919097;29;20476;-77
2020/12/23 00:48:37;;;;;;;19.15;7.85;;;;;;;;;;4919431;29;20432;-77
2020/12/23 00:51:06;;;;;;;15.25;7.32;;;;;;;;;;4919662;29;20079;-77
2020/12/23 00:53:32;;;;;;;13.43;7.07;;;;;;;;;;4919332;29;20027;-77
2020/12/23 00:55:57;;;;;;;14.68;7.60;;;;;;;;;;4936337;29;20485;-77
2020/12/23 00:58:22;;;;;;;16.20;7.57;;;;;;;;;;4919389;29;20086;-77
2020/12/23 01:00:47;;;;;;;14.73;7.35;;;;;;;;;;4918663;29;20053;-78
2020/12/23 01:03:12;;;;;;;14.98;6.70;;;;;;;;;;4919012;29;20020;-77
2020/12/23 01:05:37;;;;;;;15.57;7.63;;;;;;;;;;4919405;29;20110;-77
2020/12/23 01:08:03;;;;;;;13.35;6.70;;;;;;;;;;4919481;29;20023;-77
2020/12/23 01:10:28;;;;;;;18.70;7.15;;;;;;;;;;4919243;29;20024;-77
2020/12/23 01:12:53;;;;;;;11.73;6.03;;;;;;;;;;4919387;29;20031;-77
2020/12/23 01:15:18;;;;;;;15.13;7.30;;;;;;;;;;4919071;29;20119;-77
2020/12/23 01:17:44;;;;;;;19.80;6.68;;;;;;;;;;4919269;29;20336;-77
2020/12/23 01:20:09;;;;;;;12.27;6.95;;;;;;;;;;4936214;29;20356;-77
2020/12/23 01:22:34;;;;;;;18.92;6.53;;;;;;;;;;4919122;29;20486;-77
2020/12/23 01:24:59;;;;;;;14.23;6.97;;;;;;;;;;4918826;29;20083;-77
2020/12/23 01:27:25;;;;;;;14.95;6.28;;;;;;;;;;4918663;29;20016;-77
2020/12/23 01:29:50;;;;;;;13.15;6.60;;;;;;;;;;4936264;29;20074;-77
2020/12/23 01:32:15;;;;;;;14.68;6.50;;;;;;;;;;4918629;29;20467;-77
2020/12/23 01:34:40;;;;;;;12.75;6.47;;;;;;;;;;4917978;29;20039;-77
2020/12/23 01:37:05;;;;;;;13.27;6.53;;;;;;;;;;4935653;29;20059;-78
2020/12/23 01:39:31;;;;;;;13.48;6.35;;;;;;;;;;4918668;29;20471;-81
2020/12/23 01:41:56;;;;;;;13.88;6.20;;;;;;;;;;4917824;29;20027;-81
2020/12/23 01:44:22;;;;;;;12.38;6.13;;;;;;;;;;4917827;29;20028;-81
2020/12/23 01:46:48;;;;;;;16.17;7.18;;;;;;;;;;4917759;29;20043;-80
2020/12/23 01:49:14;;;;;;;11.27;6.57;;;;;;;;;;4918196;29;20043;-81
2020/12/23 01:51:39;;;;;;;11.20;5.97;;;;;;;;;;4917886;29;20506;-80
2020/12/23 01:54:04;;;;;;;9.98;6.38;;;;;;;;;;4936139;29;20478;-89
2020/12/23 01:56:30;;;;;;;16.48;6.68;;;;;;;;;;4916360;29;20027;-88
2020/12/23 01:58:55;;;;;;;12.50;5.30;;;;;;;;;;4924104;29;20023;-88
2020/12/23 02:01:21;;;;;;;11.90;6.07;;;;;;;;;;4918278;29;20143;-89
2020/12/23 02:03:47;;;;;;;11.77;5.68;;;;;;;;;;4914304;29;20024;-89
2020/12/23 02:06:12;;;;;;;8.45;4.82;;;;;;;;;;4910654;29;20402;-89
2020/12/23 02:08:39;;;;;;;7.43;4.95;;;;;;;;;;4905950;29;20071;-90
2020/12/23 02:11:04;;;;;;;13.25;5.05;;;;;;;;;;4935950;29;20056;-89
2020/12/23 02:13:38;;;;;;;12.50;4.75;;;;;;;;;;4919354;29;20086;-89
2020/12/23 02:16:03;;;;;;;8.27;4.28;;;;;;;;;;4911067;29;20028;-89
2020/12/23 02:18:29;;;;;;;9.75;4.82;;;;;;;;;;4930442;29;20760;-89
2020/12/23 02:20:54;;;;;;;8.68;4.70;;;;;;;;;;4905721;29;20024;-89
2020/12/23 02:23:19;;;;;;;9.07;4.85;;;;;;;;;;4907507;29;20016;-89
2020/12/23 02:25:44;;;;;;;13.32;5.68;;;;;;;;;;4916019;29;20054;-89
2020/12/23 02:28:09;;;;;;;8.20;4.60;;;;;;;;;;4917442;29;20337;-89
2020/12/23 02:30:35;;;;;;;8.93;5.18;;;;;;;;;;4913144;29;20027;-89
2020/12/23 02:33:00;;;;;;;9.38;4.60;;;;;;;;;;4933875;29;20055;-89
2020/12/23 02:35:25;;;;;;;8.88;3.97;;;;;;;;;;4926895;29;20019;-89
2020/12/23 02:37:50;;;;;;;7.45;3.55;;;;;;;;;;4914421;29;20024;-89
2020/12/23 02:40:15;;;;;;;9.07;4.00;;;;;;;;;;4935059;29;20059;-90
2020/12/23 02:42:40;;;;;;;7.78;3.58;;;;;;;;;;4918453;29;20023;-90
2020/12/23 02:45:06;;;;;;;6.85;3.97;;;;;;;;;;4904819;29;20420;-89
2020/12/23 02:47:31;;;;;;;9.43;3.90;;;;;;;;;;4934972;29;20016;-89
2020/12/23 02:49:56;;;;;;;7.97;4.20;;;;;;;;;;4918368;29;20016;-90
2020/12/23 02:52:21;;;;;;;11.43;4.88;;;;;;;;;;4935040;29;20019;-90
2020/12/23 02:54:47;;;;;;;9.68;5.00;;;;;;;;;;4905250;29;20333;-90
2020/12/23 02:57:12;;;;;;;8.55;5.00;;;;;;;;;;4918373;29;20031;-90
2020/12/23 02:59:39;;;;;;;7.45;4.80;;;;;;;;;;4935524;29;20027;-90
2020/12/23 03:02:04;;;;;;;8.60;4.82;;;;;;;;;;4935107;29;20024;-90
2020/12/23 03:04:30;;;;;;;7.97;4.45;;;;;;;;;;4908212;29;20031;-89
2020/12/23 03:06:55;;;;;;;7.53;4.57;;;;;;;;;;4902278;29;20067;-89
2020/12/23 03:09:20;;;;;;;8.82;4.65;;;;;;;;;;4910936;29;20070;-89
2020/12/23 03:11:46;;;;;;;8.43;4.50;;;;;;;;;;4935213;29;20094;-89
2020/12/23 03:14:11;;;;;;;10.45;5.20;;;;;;;;;;4911224;29;20103;-88
2020/12/23 03:16:36;;;;;;;7.45;4.88;;;;;;;;;;4928217;29;20110;-89
2020/12/23 03:19:02;;;;;;;7.18;4.72;;;;;;;;;;4900756;29;20111;-89
2020/12/23 03:21:27;;;;;;;19.60;7.18;;;;;;;;;;4909091;29;20057;-89
2020/12/23 03:23:53;;;;;;;10.73;5.15;;;;;;;;;;4917933;29;20082;-89
2020/12/23 03:26:18;;;;;;;10.05;5.05;;;;;;;;;;4917772;29;20498;-88
2020/12/23 03:28:43;;;;;;;8.82;4.88;;;;;;;;;;4932785;29;20379;-88
2020/12/23 03:31:09;;;;;;;10.90;4.95;;;;;;;;;;4932558;29;20038;-89
2020/12/23 03:33:34;;;;;;;10.63;4.93;;;;;;;;;;4916011;29;20043;-89
2020/12/23 03:36:00;;;;;;;8.23;5.30;;;;;;;;;;4931616;29;20536;-89
2020/12/23 03:38:25;;;;;;;9.02;5.30;;;;;;;;;;4915669;29;20499;-88
2020/12/23 03:40:50;;;;;;;9.07;5.25;;;;;;;;;;4915886;29;20146;-89
2020/12/23 03:43:16;;;;;;;8.88;5.38;;;;;;;;;;4932456;29;20100;-88
2020/12/23 03:45:41;;;;;;;8.18;4.75;;;;;;;;;;4915364;29;20024;-89
2020/12/23 03:48:06;;;;;;;10.77;4.82;;;;;;;;;;4916084;29;20023;-89
2020/12/23 03:50:31;;;;;;;12.98;4.53;;;;;;;;;;4917471;29;20051;-89
2020/12/23 03:52:57;;;;;;;9.18;4.63;;;;;;;;;;4920386;29;20122;-89
2020/12/23 03:55:22;;;;;;;7.13;4.20;;;;;;;;;;4921172;29;20035;-87
2020/12/23 03:57:47;;;;;;;9.13;4.40;;;;;;;;;;4937804;29;20028;-89
2020/12/23 04:00:13;;;;;;;8.05;4.45;;;;;;;;;;4920078;29;20012;-88
2020/12/23 04:02:38;;;;;;;5.40;3.35;;;;;;;;;;4929577;29;20035;-89
2020/12/23 04:05:04;;;;;;;5.30;3.30;;;;;;;;;;4907784;29;20012;-89
2020/12/23 04:07:30;;;;;;;4.80;2.92;;;;;;;;;;4920899;29;20487;-89
2020/12/23 04:09:55;;;;;;;5.25;2.78;;;;;;;;;;4920039;29;20030;-89
2020/12/23 04:12:20;;;;;;;3.80;2.70;;;;;;;;;;4920965;29;20158;-89
2020/12/23 04:14:45;;;;;;;6.65;2.55;;;;;;;;;;4920591;29;20472;-89
2020/12/23 04:17:10;;;;;;;8.57;2.92;;;;;;;;;;4920681;29;20023;-89
2020/12/23 04:19:36;;;;;;;5.60;2.42;;;;;;;;;;4937738;29;20024;-89
2020/12/23 04:22:01;;;;;;;4.00;1.58;;;;;;;;;;4920643;29;20063;-89
2020/12/23 04:24:26;;;;;;;4.57;2.08;;;;;;;;;;4920980;29;20016;-89
2020/12/23 04:26:51;;;;;;;3.80;1.83;;;;;;;;;;4920522;29;20028;-89
2020/12/23 04:29:17;;;;;;;2.63;1.60;;;;;;;;;;4920988;29;20020;-90
2020/12/23 04:31:42;;;;;;;6.95;1.50;;;;;;;;;;4920799;29;20103;-89
2020/12/23 04:34:07;;;;;;;1.77;1.10;;;;;;;;;;4937670;29;20147;-90
2020/12/23 04:36:32;;;;;;;3.45;1.10;;;;;;;;;;4937385;29;20075;-89
2020/12/23 04:38:57;;;;;;;1.98;0.80;;;;;;;;;;4920607;29;20525;-90
2020/12/23 04:41:22;;;;;;;1.30;0.73;;;;;;;;;;4919819;29;20020;-89
2020/12/23 04:43:48;;;;;;;3.50;0.75;;;;;;;;;;4936772;29;20110;-89
2020/12/23 04:46:18;;;;;;;3.38;0.80;;;;;;;;;;4920231;29;20111;-89
2020/12/23 04:48:45;;;;;;;4.10;0.68;;;;;;;;;;4937750;29;20031;-89
2020/12/23 04:51:10;;;;;;;2.63;0.50;;;;;;;;;;4936884;29;20023;-89
2020/12/23 04:53:35;;;;;;;6.05;0.60;;;;;;;;;;4920809;29;20039;-89
2020/12/23 04:56:00;;;;;;;2.78;0.60;;;;;;;;;;4920523;29;20344;-89
2020/12/23 04:58:27;;;;;;;0.95;0.40;;;;;;;;;;4920629;29;20378;-89
2020/12/23 05:00:52;;;;;;;1.20;0.60;;;;;;;;;;4937050;29;20027;-89
2020/12/23 05:03:17;;;;;;;1.95;0.50;;;;;;;;;;4920644;29;20068;-89
2020/12/23 05:05:43;;;;;;;4.13;0.43;;;;;;;;;;4937426;29;20455;-89
2020/12/23 05:08:08;;;;;;;0.70;0.40;;;;;;;;;;4936977;29;20020;-89
2020/12/23 05:10:33;;;;;;;0.68;0.30;;;;;;;;;;4937292;29;20043;-89
2020/12/23 05:12:58;;;;;;;0.63;0.40;;;;;;;;;;4919309;29;20717;-89
2020/12/23 05:15:24;;;;;;;1.95;0.43;;;;;;;;;;4919828;29;20126;-89
2020/12/23 05:17:49;;;;;;;0.63;0.30;;;;;;;;;;4937084;29;20107;-89
2020/12/23 05:20:15;;;;;;;2.08;0.40;;;;;;;;;;4936493;29;20024;-89
2020/12/23 05:22:44;;;;;;;0.75;0.40;;;;;;;;;;4936944;29;20103;-89
2020/12/23 05:25:10;;;;;;;0.60;0.30;;;;;;;;;;4936989;29;20015;-89
2020/12/23 05:27:35;;;;;;;0.90;0.50;;;;;;;;;;4919968;29;20028;-89
2020/12/23 05:30:02;;;;;;;2.47;0.30;;;;;;;;;;4920225;29;20475;-89
2020/12/23 05:32:28;;;;;;;1.48;0.60;;;;;;;;;;4919167;29;20066;-89
2020/12/23 05:34:56;;;;;;;1.13;0.57;;;;;;;;;;4936675;29;20451;-89
2020/12/23 05:37:22;;;;;;;1.77;0.45;;;;;;;;;;4935589;29;20094;-89
2020/12/23 05:39:47;;;;;;;1.45;0.50;;;;;;;;;;4934503;29;20542;-89
2020/12/23 05:42:13;;;;;;;1.85;0.50;;;;;;;;;;4917042;29;20468;-89
2020/12/23 05:44:39;;;;;;;0.60;0.40;;;;;;;;;;4934065;29;20032;-89
2020/12/23 05:47:05;;;;;;;2.45;0.55;;;;;;;;;;4917415;29;20186;-89
2020/12/23 05:49:37;;;;;;;3.50;0.73;;;;;;;;;;4917931;29;20104;-89
2020/12/23 05:52:02;;;;;;;4.95;2.33;;;;;;;;;;4926713;29;20049;-89
2020/12/23 05:54:27;;;;;;;1.58;1.00;;;;;;;;;;4917941;29;20159;-88
2020/12/23 05:56:52;;;;;;;1.83;1.38;;;;;;;;;;4919380;29;20019;-89
2020/12/23 05:59:19;;;;;;;4.75;2.00;;;;;;;;;;4936208;29;20020;-89
2020/12/23 06:01:44;;;;;;;7.28;1.83;;;;;;;;;;4918654;29;20526;-89
2020/12/23 06:04:14;;;;;;;1.60;0.90;;;;;;;;;;4918727;29;20020;-88
2020/12/23 06:06:42;;;;;;;1.60;0.55;;;;;;;;;;4918377;29;20108;-89
2020/12/23 06:09:07;;;;;;;1.98;1.35;;;;;;;;;;4918854;29;20094;-88
2020/12/23 06:11:44;;;;;;;3.25;0.50;;;;;;;;;;4935020;29;20023;-88
2020/12/23 06:14:20;;;;;;;0.98;0.70;;;;;;;;;;4935139;29;20083;-89
2020/12/23 06:16:51;;;;;;;2.47;0.50;;;;;;;;;;4918287;29;20047;-88
2020/12/23 06:19:19;;;;;;;0.30;0.30;;;;;;;;;;4935935;29;20442;-88
2020/12/23 06:21:44;;;;;;;1.75;1.15;;;;;;;;;;4935434;29;20345;-89
2020/12/23 06:24:11;;;;;;;1.90;0.40;;;;;;;;;;4918455;29;20111;-89
2020/12/23 06:26:41;;;;;;;1.23;0.52;;;;;;;;;;4918556;29;20027;-89
2020/12/23 06:29:07;;;;;;;0.77;0.30;;;;;;;;;;4918687;29;20456;-89
2020/12/23 06:31:39;;;;;;;0.90;0.40;;;;;;;;;;4918256;29;20028;-88
2020/12/23 06:34:04;;;;;;;0.40;0.30;;;;;;;;;;4905845;29;20370;-88
2020/12/23 06:36:30;;;;;;;0.75;0.40;;;;;;;;;;4918155;29;20044;-88
2020/12/23 06:39:14;;;;;;;2.40;0.43;;;;;;;;;;4934254;29;20019;-88
2020/12/23 06:41:39;;;;;;;1.65;0.40;;;;;;;;;;4915650;29;20036;-88
2020/12/23 06:44:05;;;;;;;0.60;0.40;;;;;;;;;;4915829;29;20592;-88
2020/12/23 06:46:50;;;;;;;4.05;0.60;;;;;;;;;;4932766;29;20027;-88
2020/12/23 06:49:15;;;;;;;3.08;1.10;;;;;;;;;;4916711;29;20027;-89
2020/12/23 06:51:40;;;;;;;7.60;2.58;;;;;;;;;;4916487;29;20503;-89
2020/12/23 06:54:06;;;;;;;9.77;1.65;;;;;;;;;;4916046;29;20024;-90
2020/12/23 06:56:44;;;;;;;4.00;1.30;;;;;;;;;;4916325;29;20490;-89
2020/12/23 06:59:29;;;;;;;0.85;0.40;;;;;;;;;;4916893;29;20034;-88
2020/12/23 07:02:00;;;;;;;4.00;0.90;;;;;;;;;;4903960;29;20114;-89
2020/12/23 07:04:25;;;;;;;3.85;1.55;;;;;;;;;;4916119;29;20066;-89
2020/12/23 07:06:50;;;;;;;2.10;1.20;;;;;;;;;;4930968;29;20047;-89
2020/12/23 07:09:21;;;;;;;3.75;0.90;;;;;;;;;;4918121;29;20028;-89
2020/12/23 07:11:46;;;;;;;3.22;0.63;;;;;;;;;;4917571;29;20074;-89
2020/12/23 07:14:14;;;;;;;2.42;0.60;;;;;;;;;;4918028;29;20035;-89
2020/12/23 07:16:40;;;;;;;0.90;0.60;;;;;;;;;;4917916;29;20039;-89
2020/12/23 07:19:06;;;;;;;4.50;0.60;;;;;;;;;;4944616;29;20106;-89
2020/12/23 07:21:32;;;;;;;2.45;0.70;;;;;;;;;;4918175;29;20062;-90
2020/12/23 07:23:57;;;;;;;2.88;0.70;;;;;;;;;;4934511;29;20024;-89
2020/12/23 07:26:24;;;;;;;0.88;0.60;;;;;;;;;;4936631;29;20102;-89
2020/12/23 07:28:49;;;;;;;1.48;0.85;;;;;;;;;;4908420;29;20063;-88
2020/12/23 07:31:14;;;;;;;1.90;0.80;;;;;;;;;;4921532;29;20031;-89
2020/12/23 07:33:40;;;;;;;6.43;1.10;;;;;;;;;;4921840;29;20528;-89
2020/12/23 07:36:05;;;;;;;3.08;1.75;;;;;;;;;;4921729;29;20020;-89
2020/12/23 07:38:32;;;;;;;1.30;0.90;;;;;;;;;;4921321;29;20114;-89
2020/12/23 07:40:57;;;;;;;2.15;0.90;;;;;;;;;;4938243;29;20103;-89
2020/12/23 07:43:23;;;;;;;3.08;0.98;;;;;;;;;;4921243;29;20208;-89
2020/12/23 07:45:48;;;;;;;3.95;0.98;;;;;;;;;;4919301;29;20047;-88
2020/12/23 07:48:15;;;;;;;1.30;0.70;;;;;;;;;;4920164;29;20427;-90
2020/12/23 07:50:41;;;;;;;1.70;1.00;;;;;;;;;;4919578;29;20034;-90
2020/12/23 07:53:14;;;;;;;2.78;1.05;;;;;;;;;;4920344;29;20031;-89
2020/12/23 07:55:41;;;;;;;1.00;0.73;;;;;;;;;;4913888;29;20071;-88
2020/12/23 07:58:06;;;;;;;1.45;0.90;;;;;;;;;;4921797;29;20522;-89
2020/12/23 08:00:32;;;;;;;2.05;1.00;;;;;;;;;;4909976;29;20126;-85
2020/12/23 08:02:57;;;;;;;5.28;1.20;;;;;;;;;;4922878;29;20020;-87
2020/12/23 08:05:22;;;;;;;1.67;0.95;;;;;;;;;;4937759;29;20085;-86
2020/12/23 08:07:48;;;;;;;1.75;1.10;;;;;;;;;;4923213;29;20379;-86
2020/12/23 08:10:17;;;;;;;2.40;1.17;;;;;;;;;;4915644;29;20491;-87
2020/12/23 08:12:51;;;;;;;2.17;1.13;;;;;;;;;;4923591;29;20023;-85
2020/12/23 08:15:16;;;;;;;5.20;1.20;;;;;;;;;;4923823;29;20030;-86
2020/12/23 08:17:42;;;;;;;4.75;0.90;;;;;;;;;;4921626;29;20394;-87
2020/12/23 08:20:12;;;;;;;2.00;1.00;;;;;;;;;;4937122;29;20051;-86
2020/12/23 08:22:39;;;;;;;2.03;0.90;;;;;;;;;;4914359;29;20023;-86
2020/12/23 08:25:06;;;;;;;1.45;0.70;;;;;;;;;;4941316;29;20035;-87
2020/12/23 08:27:32;;;;;;;1.58;0.80;;;;;;;;;;4923914;29;20023;-87
2020/12/23 08:29:57;;;;;;;2.47;1.00;;;;;;;;;;4938296;29;20459;-86
2020/12/23 08:32:24;;;;;;;4.53;1.13;;;;;;;;;;4920342;29;20138;-87
2020/12/23 08:34:51;;;;;;;3.13;1.42;;;;;;;;;;4917013;29;20026;-87
2020/12/23 08:37:23;;;;;;;1.98;1.00;;;;;;;;;;4908328;29;20400;-87
2020/12/23 08:39:55;;;;;;;6.72;1.30;;;;;;;;;;4915270;29;20434;-85
2020/12/23 08:42:20;;;;;;;;;;;;;;;;;;4921545;29;20031;-87
2020/12/23 08:44:48;;;;;;;1.45;0.80;;;;;;;;;;4935401;29;21686;-87
2020/12/23 08:47:17;;;;;;;5.03;1.00;;;;;;;;;;4933095;29;20502;-86
2020/12/23 08:49:44;;;;;;;3.05;0.93;;;;;;;;;;4913476;29;20095;-87
2020/12/23 08:52:16;;;;;;;3.40;0.90;;;;;;;;;;4925185;29;20035;-87
2020/12/23 08:54:42;;;;;;;5.15;0.93;;;;;;;;;;4921023;29;20024;-86
2020/12/23 08:57:08;;;;;;;3.30;0.95;;;;;;;;;;4913318;29;20032;-87
2020/12/23 08:59:38;;;;;;;4.32;1.30;;;;;;;;;;4917214;29;20034;-87
2020/12/23 09:02:10;;;;;;;4.43;0.93;;;;;;;;;;4921151;29;20085;-86
2020/12/23 09:04:36;;;;;;;2.15;0.90;;;;;;;;;;4920955;29;20468;-88
2020/12/23 09:07:01;;;;;;;1.67;0.90;;;;;;;;;;4919152;29;20066;-88
2020/12/23 09:09:26;;;;;;;2.13;1.00;;;;;;;;;;4919409;29;20030;-88
2020/12/23 09:11:56;;;;;;;2.75;0.75;;;;;;;;;;4918578;29;20057;-88
2020/12/23 09:14:28;;;;;;;1.63;0.80;;;;;;;;;;4919065;29;20378;-87
2020/12/23 09:17:05;;;;;;;2.10;0.80;;;;;;;;;;4917323;29;20114;-86
2020/12/23 09:19:50;;;;;;;3.15;0.77;;;;;;;;;;4917771;29;20031;-84
2020/12/23 09:22:26;;;;;;;1.90;0.98;;;;;;;;;;4922102;29;20051;-84
2020/12/23 09:24:51;;;;;;;3.42;0.95;;;;;;;;;;4915806;29;20070;-83
2020/12/23 09:27:21;;;;;;;2.03;0.90;;;;;;;;;;4917021;29;20428;-85
2020/12/23 09:29:47;;;;;;;1.77;0.80;;;;;;;;;;4909562;29;20055;-85
2020/12/23 09:32:12;;;;;;;6.47;0.90;;;;;;;;;;4932747;29;20383;-86
2020/12/23 09:34:38;;;;;;;1.60;1.00;;;;;;;;;;4935625;29;20020;-85
2020/12/23 09:37:04;;;;;;;2.30;0.95;;;;;;;;;;4917953;29;20019;-85
2020/12/23 09:39:29;;;;;;;3.08;1.25;;;;;;;;;;4906619;29;20095;-85
2020/12/23 09:42:04;;;;;;;2.20;1.08;;;;;;;;;;4913721;29;20479;-86
2020/12/23 09:44:30;;;;;;;4.18;1.30;;;;;;;;;;4917980;29;20083;-86
2020/12/23 09:46:55;;;;;;;2.20;1.27;;;;;;;;;;4917580;29;20468;-86
2020/12/23 09:49:20;;;;;;;3.88;1.35;;;;;;;;;;4925566;29;20459;-86
2020/12/23 09:51:49;;;;;;;2.85;1.13;;;;;;;;;;4917340;29;20106;-85
2020/12/23 09:54:14;;;;;;;2.72;0.82;;;;;;;;;;4917916;29;20030;-85
2020/12/23 09:56:49;;;;;;;3.90;1.40;;;;;;;;;;4932310;29;20019;-86
2020/12/23 09:59:15;;;;;;;3.53;1.38;;;;;;;;;;4935066;29;20038;-85
2020/12/23 10:01:40;;;;;;;2.55;1.45;;;;;;;;;;4906672;29;20429;-87
2020/12/23 10:04:05;;;;;;;2.40;1.13;;;;;;;;;;4910664;29;20020;-86
2020/12/23 10:06:30;;;;;;;7.18;1.63;;;;;;;;;;4929634;29;20392;-86
2020/12/23 10:08:55;;;;;;;2.60;1.38;;;;;;;;;;4917779;29;20032;-85
2020/12/23 10:11:21;;;;;;;7.60;1.27;;;;;;;;;;4916635;29;20114;-85
2020/12/23 10:13:46;;;;;;;4.13;1.30;;;;;;;;;;4916648;29;20388;-87
2020/12/23 10:16:11;;;;;;;3.20;1.08;;;;;;;;;;4916940;29;20467;-86
2020/12/23 10:18:36;;;;;;;4.38;1.30;;;;;;;;;;4917012;29;20160;-85
2020/12/23 10:21:02;;;;;;;2.70;1.30;;;;;;;;;;4914857;29;20024;-84
2020/12/23 10:23:27;;;;;;;2.85;1.20;;;;;;;;;;4916068;29;20023;-85
2020/12/23 10:25:52;;;;;;;2.95;1.02;;;;;;;;;;4916850;29;20057;-84
2020/12/23 10:28:17;;;;;;;3.10;1.63;;;;;;;;;;4912103;29;20410;-84
2020/12/23 10:30:43;;;;;;;2.42;1.00;;;;;;;;;;4929608;29;20506;-86
2020/12/23 10:33:08;;;;;;;5.32;1.10;;;;;;;;;;4911080;29;20074;-86
2020/12/23 10:35:33;;;;;;;2.13;1.25;;;;;;;;;;4908109;29;20028;-86
2020/12/23 10:37:58;;;;;;;2.15;1.02;;;;;;;;;;4907947;29;20471;-86
2020/12/23 10:40:23;;;;;;;2.33;0.95;;;;;;;;;;4923062;29;20087;-85
2020/12/23 10:42:48;;;;;;;3.80;1.00;;;;;;;;;;4916870;29;20505;-84
2020/12/23 10:45:14;;;;;;;2.15;1.00;;;;;;;;;;4933682;29;20111;-84
2020/12/23 10:47:39;;;;;;;3.55;0.90;;;;;;;;;;4916476;29;20015;-85
2020/12/23 10:50:04;;;;;;;1.48;0.70;;;;;;;;;;4915534;29;20114;-85
2020/12/23 10:52:29;;;;;;;4.05;0.88;;;;;;;;;;4916772;29;20038;-85
2020/12/23 10:54:55;;;;;;;2.58;0.90;;;;;;;;;;4933331;29;20023;-84
2020/12/23 10:57:21;;;;;;;1.45;0.90;;;;;;;;;;4917435;29;20027;-85
2020/12/23 10:59:46;;;;;;;1.15;0.88;;;;;;;;;;4918010;29;20034;-85
2020/12/23 11:02:11;;;;;;;1.77;0.70;;;;;;;;;;4928993;29;20070;-85
2020/12/23 11:04:38;;;;;;;1.75;0.88;;;;;;;;;;4913919;29;20024;-84
2020/12/23 11:07:03;;;;;;;1.83;0.63;;;;;;;;;;4919759;29;20050;-83
2020/12/23 11:09:29;;;;;;;1.75;0.63;;;;;;;;;;4914017;29;20480;-83
2020/12/23 11:11:54;;;;;;;1.17;0.60;;;;;;;;;;4932288;29;20090;-87
2020/12/23 11:14:20;;;;;;;1.40;0.60;;;;;;;;;;4916663;29;20051;-86
2020/12/23 11:16:51;;;;;;;1.67;0.50;;;;;;;;;;4915308;29;20027;-87
2020/12/23 11:19:18;;;;;;;2.70;0.60;;;;;;;;;;4938283;29;20043;-86
2020/12/23 11:21:43;;;;;;;1.45;0.68;;;;;;;;;;4914521;29;20376;-86
2020/12/23 11:24:09;;;;;;;1.60;0.43;;;;;;;;;;4908509;29;20166;-86
2020/12/23 11:26:34;;;;;;;1.63;0.60;;;;;;;;;;4916551;29;20047;-86
2020/12/23 11:28:59;;;;;;;1.20;0.60;;;;;;;;;;4913946;29;20364;-86
2020/12/23 11:31:25;;;;;;;1.15;0.60;;;;;;;;;;4931833;29;20083;-79
2020/12/23 11:33:50;;;;;;;1.38;0.63;;;;;;;;;;4912853;29;20036;-80
2020/12/23 11:36:16;;;;;;;2.63;0.40;;;;;;;;;;4916211;29;20078;-80
2020/12/23 11:38:41;;;;;;;2.80;0.68;;;;;;;;;;4916583;29;20384;-80
2020/12/23 11:41:06;;;;;;;2.22;0.70;;;;;;;;;;4932987;29;20030;-79
2020/12/23 11:43:32;;;;;;;2.17;1.00;;;;;;;;;;4916277;29;20459;-80
2020/12/23 11:45:57;;;;;;;4.05;1.23;;;;;;;;;;4915941;29;20046;-80
2020/12/23 11:48:22;;;;;;;5.10;1.13;;;;;;;;;;4916843;29;20463;-80
2020/12/23 11:50:47;;;;;;;3.70;0.80;;;;;;;;;;4915801;29;20192;-80
2020/12/23 11:53:13;;;;;;;1.60;0.75;;;;;;;;;;4915963;29;20030;-79
2020/12/23 11:55:38;;;;;;;2.83;0.90;;;;;;;;;;4933294;29;20418;-80
2020/12/23 11:58:03;;;;;;;7.05;0.80;;;;;;;;;;4923282;29;20450;-80
2020/12/23 12:00:29;;;;;;;1.40;0.80;;;;;;;;;;4914162;29;20122;-80
2020/12/23 12:02:54;;;;;;;7.63;0.80;;;;;;;;;;4912360;29;20031;-79
2020/12/23 12:05:19;;;;;;;1.40;0.40;;;;;;;;;;4915359;29;20460;-80
2020/12/23 12:07:44;;;;;;;4.15;0.60;;;;;;;;;;4916115;29;20086;-80
2020/12/23 12:10:10;;;;;;;1.25;0.60;;;;;;;;;;4915149;29;20113;-80
2020/12/23 12:12:35;;;;;;;0.90;0.60;;;;;;;;;;4916905;29;20034;-80
2020/12/23 12:15:01;;;;;;;3.53;0.45;;;;;;;;;;4916540;29;20107;-79
2020/12/23 12:17:26;;;;;;;2.05;0.50;;;;;;;;;;4929910;29;20016;-79
2020/12/23 12:19:52;;;;;;;1.35;0.52;;;;;;;;;;4919881;29;20485;-80
2020/12/23 12:22:17;;;;;;;1.08;0.57;;;;;;;;;;4930054;29;20731;-80
2020/12/23 12:24:42;;;;;;;1.23;0.50;;;;;;;;;;4915047;29;20016;-78
2020/12/23 12:27:07;;;;;;;1.55;0.70;;;;;;;;;;4928753;29;20019;-79
2020/12/23 12:29:33;;;;;;;0.95;0.40;;;;;;;;;;4918181;29;20020;-79
2020/12/23 12:31:58;;;;;;;2.15;0.50;;;;;;;;;;4916832;29;20426;-80
2020/12/23 12:34:23;;;;;;;1.45;0.50;;;;;;;;;;4935945;29;20031;-80
2020/12/23 12:36:50;;;;;;;8.63;0.50;;;;;;;;;;4935440;29;20384;-80
2020/12/23 12:39:15;;;;;;;1.50;0.60;;;;;;;;;;4918763;29;20115;-79
2020/12/23 12:41:40;;;;;;;0.88;0.55;;;;;;;;;;4916317;29;20038;-80
2020/12/23 12:44:05;;;;;;;1.65;0.63;;;;;;;;;;4919185;29;20007;-79
2020/12/23 12:46:31;;;;;;;4.32;0.80;;;;;;;;;;4922471;29;20024;-79
2020/12/23 12:48:56;;;;;;;4.38;0.70;;;;;;;;;;4911615;29;20042;-80
2020/12/23 12:51:27;;;;;;;2.38;0.90;;;;;;;;;;4934380;29;20722;-80
2020/12/23 12:53:53;;;;;;;1.48;0.70;;;;;;;;;;4916654;29;20513;-79
2020/12/23 12:56:28;;;;;;;1.67;0.70;;;;;;;;;;4917877;29;20031;-79
2020/12/23 12:58:55;;;;;;;5.38;1.25;;;;;;;;;;4935599;29;20050;-79
2020/12/23 13:01:20;;;;;;;1.95;0.80;;;;;;;;;;4912171;29;20083;-77
2020/12/23 13:03:45;;;;;;;4.00;0.90;;;;;;;;;;4916394;29;20106;-78
2020/12/23 13:06:10;;;;;;;1.25;0.68;;;;;;;;;;4928318;29;20035;-77
2020/12/23 13:08:36;;;;;;;2.00;0.75;;;;;;;;;;4914990;29;20103;-77
2020/12/23 13:11:01;;;;;;;3.40;0.70;;;;;;;;;;4908504;29;20024;-77
2020/12/23 13:13:26;;;;;;;1.73;0.65;;;;;;;;;;4916104;29;20076;-78
2020/12/23 13:15:51;;;;;;;3.08;0.80;;;;;;;;;;4915478;29;20090;-78
2020/12/23 13:18:17;;;;;;;1.10;0.52;;;;;;;;;;4930458;29;20030;-77
2020/12/23 13:20:42;;;;;;;3.05;0.60;;;;;;;;;;4916606;29;20037;-77
2020/12/23 13:23:07;;;;;;;6.30;0.60;;;;;;;;;;4924713;29;20015;-77
2020/12/23 13:25:32;;;;;;;1.30;0.60;;;;;;;;;;4921412;29;20444;-76
2020/12/23 13:27:58;;;;;;;2.72;0.70;;;;;;;;;;4933209;29;20036;-78
2020/12/23 13:30:23;;;;;;;1.13;0.40;;;;;;;;;;4927761;29;20327;-77
2020/12/23 13:32:48;;;;;;;1.75;0.60;;;;;;;;;;4917385;29;20075;-77
2020/12/23 13:35:13;;;;;;;1.00;0.65;;;;;;;;;;4920205;29;20108;-77
2020/12/23 13:37:38;;;;;;;2.60;0.80;;;;;;;;;;4913826;29;20468;-77
2020/12/23 13:40:04;;;;;;;4.68;0.60;;;;;;;;;;4905994;29;20083;-77
2020/12/23 13:42:29;;;;;;;2.47;0.40;;;;;;;;;;4925264;29;20042;-77
2020/12/23 13:44:55;;;;;;;0.63;0.40;;;;;;;;;;4934358;29;20371;-77
2020/12/23 13:47:20;;;;;;;2.50;0.43;;;;;;;;;;4916663;29;20091;-77
2020/12/23 13:49:47;;;;;;;4.05;0.57;;;;;;;;;;4915571;29;20558;-77
2020/12/23 13:52:15;;;;;;;3.35;0.73;;;;;;;;;;4917296;29;20038;-76
2020/12/23 13:54:40;;;;;;;2.03;0.80;;;;;;;;;;4905658;29;20058;-77
2020/12/23 13:57:06;;;;;;;0.88;0.30;;;;;;;;;;4910155;29;20052;-78
2020/12/23 13:59:31;;;;;;;0.52;0.32;;;;;;;;;;4934618;29;20027;-77
2020/12/23 14:01:56;;;;;;;0.55;0.30;;;;;;;;;;4912196;29;20035;-77
2020/12/23 14:04:21;;;;;;;1.40;0.50;;;;;;;;;;4911880;29;20023;-77
2020/12/23 14:06:47;;;;;;;0.70;0.40;;;;;;;;;;4914065;29;20023;-77
2020/12/23 14:09:12;;;;;;;1.00;0.40;;;;;;;;;;4916838;29;20463;-77
2020/12/23 14:11:37;;;;;;;4.57;0.60;;;;;;;;;;4917805;29;20764;-77
2020/12/23 14:14:02;;;;;;;0.88;0.57;;;;;;;;;;4917033;29;20051;-77
2020/12/23 14:16:27;;;;;;;0.60;0.40;;;;;;;;;;4934135;29;20423;-77
2020/12/23 14:18:53;;;;;;;6.40;0.40;;;;;;;;;;4933920;29;20540;-77
2020/12/23 14:21:18;;;;;;;1.05;0.40;;;;;;;;;;4934160;29;20086;-77
2020/12/23 14:23:44;;;;;;;2.15;0.40;;;;;;;;;;4933733;29;20106;-78
2020/12/23 14:26:09;;;;;;;2.30;0.20;;;;;;;;;;4911737;29;20083;-77
2020/12/23 14:28:36;;;;;;;4.53;0.77;;;;;;;;;;4916331;29;20023;-77
2020/12/23 14:31:03;;;;;;;0.28;0.22;;;;;;;;;;4929908;29;20027;-77
2020/12/23 14:33:28;;;;;;;3.80;0.40;;;;;;;;;;4932094;29;20087;-78